createdAt,value
2023-03-12T00:01:42.294Z,-2.50
2023-03-12T00:04:10.285Z,-2.49
2023-03-12T00:06:37.810Z,-2.52
2023-03-12T00:09:05.966Z,-2.54
2023-03-12T00:11:33.501Z,-2.61
2023-03-12T00:14:01.226Z,-2.67
2023-03-12T00:16:28.867Z,-2.71
2023-03-12T00:18:56.467Z,-2.74
2023-03-12T00:21:23.976Z,-2.79
2023-03-12T00:23:51.556Z,-2.80
2023-03-12T00:26:19.039Z,-2.82
2023-03-12T00:28:46.515Z,-2.82
2023-03-12T00:31:14.500Z,-2.83
2023-03-12T00:33:42.042Z,-2.87
2023-03-12T00:36:12.188Z,-2.89
2023-03-12T00:38:41.986Z,-2.91
2023-03-12T00:41:09.522Z,-2.91
2023-03-12T00:43:37.660Z,-2.89
2023-03-12T00:46:05.310Z,-2.88
2023-03-12T00:48:33.551Z,-2.87
2023-03-12T00:51:01.170Z,-2.85
2023-03-12T00:53:28.772Z,-2.81
2023-03-12T00:55:56.350Z,-2.78
2023-03-12T00:58:23.830Z,-2.76
2023-03-12T01:00:51.428Z,-2.77
2023-03-12T01:03:18.927Z,-2.79
2023-03-12T01:05:46.442Z,-2.78
2023-03-12T01:08:14.226Z,-2.76
2023-03-12T01:10:41.825Z,-2.73
2023-03-12T01:13:09.484Z,-2.69
2023-03-12T01:15:38.296Z,-2.66
2023-03-12T01:18:05.947Z,-2.66
2023-03-12T01:20:33.438Z,-2.69
2023-03-12T01:23:01.053Z,-2.72
2023-03-12T01:25:28.698Z,-2.76
2023-03-12T01:27:56.207Z,-2.84
2023-03-12T01:30:24.555Z,-2.91
2023-03-12T01:32:52.179Z,-2.97
2023-03-12T01:35:19.909Z,-3.00
2023-03-12T01:37:47.579Z,-3.03
2023-03-12T01:40:15.065Z,-3.04
2023-03-12T01:42:42.553Z,-3.05
2023-03-12T01:45:10.304Z,-3.05
2023-03-12T01:47:37.789Z,-3.03
2023-03-12T01:50:05.975Z,-3.01
2023-03-12T01:52:33.580Z,-3.01
2023-03-12T01:55:01.067Z,-2.98
2023-03-12T01:57:29.056Z,-2.93
2023-03-12T01:59:56.645Z,-2.88
2023-03-12T02:02:27.711Z,-2.85
2023-03-12T02:04:55.282Z,-2.86
2023-03-12T02:07:22.782Z,-2.88
2023-03-12T02:09:50.437Z,-2.91
2023-03-12T02:12:17.960Z,-2.90
2023-03-12T02:14:45.574Z,-2.94
2023-03-12T02:17:13.331Z,-2.99
2023-03-12T02:19:40.989Z,-3.08
2023-03-12T02:22:08.563Z,-3.16
2023-03-12T02:24:36.314Z,-3.21
2023-03-12T02:27:03.814Z,-3.32
2023-03-12T02:29:31.432Z,-3.45
2023-03-12T02:31:59.097Z,-3.55
2023-03-12T02:34:26.682Z,-3.67
2023-03-12T02:36:54.280Z,-3.80
2023-03-12T02:39:21.855Z,-3.89
2023-03-12T02:41:49.327Z,-3.89
2023-03-12T02:44:16.907Z,-3.90
2023-03-12T02:46:44.567Z,-3.93
2023-03-12T02:49:13.478Z,-3.97
2023-03-12T02:51:41.257Z,-4.02
2023-03-12T02:54:09.346Z,-4.05
2023-03-12T02:56:36.924Z,-4.14
2023-03-12T02:59:04.632Z,-4.23
2023-03-12T03:01:35.281Z,-4.28
2023-03-12T03:04:02.825Z,-4.33
2023-03-12T03:06:31.230Z,-4.37
2023-03-12T03:08:58.864Z,-4.40
2023-03-12T03:11:27.177Z,-4.39
2023-03-12T03:13:55.277Z,-4.35
2023-03-12T03:16:22.770Z,-4.34
2023-03-12T03:18:50.375Z,-4.33
2023-03-12T03:21:18.011Z,-4.34
2023-03-12T03:23:45.674Z,-4.35
2023-03-12T03:26:13.514Z,-4.39
2023-03-12T03:31:08.991Z,-4.47
2023-03-12T03:33:37.554Z,-4.53
2023-03-12T03:36:05.484Z,-4.64
2023-03-12T03:38:33.560Z,-4.73
2023-03-12T03:41:01.256Z,-4.80
2023-03-12T03:43:28.953Z,-4.85
2023-03-12T03:45:56.474Z,-4.92
2023-03-12T03:48:24.029Z,-4.97
2023-03-12T03:50:51.625Z,-5.02
2023-03-12T03:53:20.072Z,-5.04
2023-03-12T03:55:47.853Z,-5.04
2023-03-12T03:58:15.408Z,-5.03
2023-03-12T04:00:42.927Z,-5.03
2023-03-12T04:03:10.571Z,-5.02
2023-03-12T04:05:38.290Z,-5.03
2023-03-12T04:08:05.934Z,-5.04
2023-03-12T04:10:33.516Z,-5.04
2023-03-12T04:13:01.275Z,-5.08
2023-03-12T04:15:33.754Z,-5.16
2023-03-12T04:18:02.769Z,-5.26
2023-03-12T04:20:31.036Z,-5.39
2023-03-12T04:22:58.692Z,-5.52
2023-03-12T04:25:26.509Z,-5.59
2023-03-12T04:27:54.002Z,-5.69
2023-03-12T04:30:21.740Z,-5.80
2023-03-12T04:32:49.337Z,-5.89
2023-03-12T04:35:16.854Z,-5.97
2023-03-12T04:37:44.332Z,-6.02
2023-03-12T04:40:12.416Z,-6.08
2023-03-12T04:42:39.941Z,-6.09
2023-03-12T04:45:07.522Z,-6.08
2023-03-12T04:47:35.007Z,-6.12
2023-03-12T04:50:03.500Z,-6.19
2023-03-12T04:52:31.040Z,-6.24
2023-03-12T04:54:59.825Z,-6.28
2023-03-12T04:57:27.310Z,-6.30
2023-03-12T04:59:55.280Z,-6.34
2023-03-12T05:02:23.871Z,-6.36
2023-03-12T05:04:51.630Z,-6.35
2023-03-12T05:07:19.940Z,-6.31
2023-03-12T05:09:47.759Z,-6.31
2023-03-12T05:12:15.708Z,-6.27
2023-03-12T05:14:43.296Z,-6.23
2023-03-12T05:17:10.878Z,-6.20
2023-03-12T05:19:38.390Z,-6.17
2023-03-12T05:22:06.163Z,-6.14
2023-03-12T05:24:33.715Z,-6.11
2023-03-12T05:27:01.170Z,-6.09
2023-03-12T05:29:29.793Z,-6.11
2023-03-12T05:31:57.458Z,-6.13
2023-03-12T05:34:25.138Z,-6.14
2023-03-12T05:36:52.921Z,-6.13
2023-03-12T05:39:20.605Z,-6.12
2023-03-12T05:41:48.658Z,-6.22
2023-03-12T05:44:17.800Z,-6.29
2023-03-12T05:46:45.342Z,-6.32
2023-03-12T05:49:12.862Z,-6.30
2023-03-12T05:51:40.501Z,-6.28
2023-03-12T05:54:08.128Z,-6.24
2023-03-12T05:56:35.607Z,-6.22
2023-03-12T05:59:03.146Z,-6.21
2023-03-12T06:01:30.704Z,-6.20
2023-03-12T06:03:58.238Z,-6.19
2023-03-12T06:06:25.753Z,-6.16
2023-03-12T06:08:53.339Z,-6.06
2023-03-12T06:11:20.836Z,-5.94
2023-03-12T06:13:48.475Z,-5.83
2023-03-12T06:16:16.142Z,-5.70
2023-03-12T06:18:43.946Z,-5.64
2023-03-12T06:21:11.484Z,-5.60
2023-03-12T06:23:39.840Z,-5.58
2023-03-12T06:26:08.084Z,-5.58
2023-03-12T06:28:35.584Z,-5.56
2023-03-12T06:31:03.281Z,-5.47
2023-03-12T06:33:30.764Z,-5.38
2023-03-12T06:35:58.305Z,-5.24
2023-03-12T06:38:25.984Z,-5.08
2023-03-12T06:40:53.559Z,-4.93
2023-03-12T06:43:21.585Z,-4.82
2023-03-12T06:45:49.974Z,-4.73
2023-03-12T06:48:17.518Z,-4.64
2023-03-12T06:50:45.234Z,-4.52
2023-03-12T06:53:12.984Z,-4.35
2023-03-12T06:55:40.765Z,-4.20
2023-03-12T06:58:09.149Z,-4.06
2023-03-12T07:00:36.976Z,-3.93
2023-03-12T07:03:04.773Z,-3.81
2023-03-12T07:05:32.637Z,-3.72
2023-03-12T07:08:00.603Z,-3.62
2023-03-12T07:10:29.475Z,-3.55
2023-03-12T07:12:57.961Z,-3.47
2023-03-12T07:15:25.920Z,-3.38
2023-03-12T07:17:53.511Z,-3.29
2023-03-12T07:20:21.408Z,-3.20
2023-03-12T07:22:49.315Z,-3.13
2023-03-12T07:25:18.939Z,-3.04
2023-03-12T07:27:46.810Z,-2.97
2023-03-12T07:30:14.413Z,-2.90
2023-03-12T07:32:42.266Z,-2.84
2023-03-12T07:35:10.443Z,-2.77
2023-03-12T07:37:38.538Z,-2.71
2023-03-12T07:40:07.561Z,-2.64
2023-03-12T07:42:35.367Z,-2.57
2023-03-12T07:45:04.310Z,-2.49
2023-03-12T07:47:35.269Z,-2.42
2023-03-12T07:50:03.677Z,-2.35
2023-03-12T07:52:31.603Z,-2.33
2023-03-12T07:55:01.376Z,-2.29
2023-03-12T07:57:29.214Z,-2.24
2023-03-12T07:59:57.018Z,-2.20
2023-03-12T08:02:25.200Z,-2.17
2023-03-12T08:04:53.719Z,-2.10
2023-03-12T08:07:21.605Z,-2.05
2023-03-12T08:09:50.382Z,-2.00
2023-03-12T08:12:18.601Z,-1.95
2023-03-12T08:14:47.172Z,-1.91
2023-03-12T08:17:15.260Z,-1.85
2023-03-12T08:19:43.082Z,-1.77
2023-03-12T08:22:10.818Z,-1.75
2023-03-12T08:24:38.696Z,-1.74
2023-03-12T08:27:06.385Z,-1.69
2023-03-12T08:29:33.966Z,-1.70
2023-03-12T08:32:04.929Z,-1.66
2023-03-12T08:34:33.090Z,-1.64
2023-03-12T08:37:01.805Z,-1.57
2023-03-12T08:39:30.047Z,-1.51
2023-03-12T08:41:58.657Z,-1.45
2023-03-12T08:44:27.194Z,-1.35
2023-03-12T08:46:56.107Z,-1.29
2023-03-12T08:49:24.087Z,-1.21
2023-03-12T08:51:51.990Z,-1.04
2023-03-12T08:54:19.494Z,-1.03
2023-03-12T08:56:47.389Z,-1.06
2023-03-12T08:59:15.406Z,-1.09
2023-03-12T09:01:44.022Z,-1.06
2023-03-12T09:04:15.335Z,-1.03
2023-03-12T09:06:43.269Z,-0.98
2023-03-12T09:09:11.093Z,-0.92
2023-03-12T09:11:42.634Z,-0.86
2023-03-12T09:16:58.998Z,-0.75
2023-03-12T09:19:27.027Z,-0.70
2023-03-12T09:21:54.742Z,-0.63
2023-03-12T09:24:22.853Z,-0.61
2023-03-12T09:26:50.807Z,-0.57
2023-03-12T09:29:19.313Z,-0.51
2023-03-12T09:31:46.824Z,-0.45
2023-03-12T09:34:15.201Z,-0.43
2023-03-12T09:36:42.985Z,-0.38
2023-03-12T09:39:10.762Z,-0.34
2023-03-12T09:41:40.183Z,-0.30
2023-03-12T09:44:08.194Z,-0.31
2023-03-12T09:46:36.173Z,-0.26
2023-03-12T09:49:04.834Z,-0.23
2023-03-12T09:51:33.039Z,-0.26
2023-03-12T09:54:00.980Z,-0.22
2023-03-12T09:56:50.594Z,-0.16
2023-03-12T09:59:18.472Z,-0.08
2023-03-12T10:01:46.539Z,0.02
2023-03-12T10:04:14.810Z,0.07
2023-03-12T10:06:42.471Z,0.13
2023-03-12T10:09:09.988Z,0.12
2023-03-12T10:11:39.318Z,0.11
2023-03-12T10:14:07.001Z,0.18
2023-03-12T10:16:34.532Z,0.22
2023-03-12T10:19:02.465Z,0.27
2023-03-12T10:21:30.214Z,0.29
2023-03-12T10:23:57.904Z,0.38
2023-03-12T10:26:26.466Z,0.47
2023-03-12T10:28:54.163Z,0.51
2023-03-12T10:31:21.832Z,0.53
2023-03-12T10:33:54.024Z,0.61
2023-03-12T10:36:21.688Z,0.67
2023-03-12T10:38:49.526Z,0.72
2023-03-12T10:41:17.647Z,0.80
2023-03-12T10:43:45.442Z,0.83
2023-03-12T10:46:13.008Z,0.83
2023-03-12T10:48:40.576Z,0.80
2023-03-12T10:51:08.363Z,0.92
2023-03-12T10:53:36.028Z,1.05
2023-03-12T10:56:03.682Z,1.13
2023-03-12T10:58:31.328Z,1.13
2023-03-12T11:00:58.995Z,1.13
2023-03-12T11:03:27.121Z,1.15
2023-03-12T11:05:54.758Z,1.15
2023-03-12T11:08:23.743Z,1.16
2023-03-12T11:10:51.385Z,1.14
2023-03-12T11:13:18.920Z,1.15
2023-03-12T11:15:46.681Z,1.17
2023-03-12T11:18:14.272Z,1.24
2023-03-12T11:20:41.788Z,1.29
2023-03-12T11:23:12.030Z,1.35
2023-03-12T11:25:39.557Z,1.40
2023-03-12T11:28:07.141Z,1.61
2023-03-12T11:30:34.770Z,1.63
2023-03-12T11:33:02.416Z,1.70
2023-03-12T11:35:30.276Z,1.69
2023-03-12T11:37:57.793Z,1.69
2023-03-12T11:40:25.912Z,1.71
2023-03-12T11:42:53.481Z,1.74
2023-03-12T11:45:21.100Z,1.73
2023-03-12T11:47:49.044Z,1.70
2023-03-12T11:50:16.692Z,1.74
2023-03-12T11:52:44.394Z,1.74
2023-03-12T11:55:13.788Z,1.74
2023-03-12T11:57:42.639Z,1.70
2023-03-12T12:00:13.120Z,1.75
2023-03-12T12:02:40.639Z,1.79
2023-03-12T12:05:08.222Z,1.84
2023-03-12T12:07:35.732Z,1.91
2023-03-12T12:10:03.240Z,1.90
2023-03-12T12:12:30.858Z,1.89
2023-03-12T12:14:58.451Z,1.89
2023-03-12T12:17:26.365Z,1.98
2023-03-12T12:19:53.912Z,2.06
2023-03-12T12:22:21.608Z,2.15
2023-03-12T12:24:49.715Z,2.17
2023-03-12T12:27:17.898Z,2.14
2023-03-12T12:29:47.862Z,2.14
2023-03-12T12:32:17.125Z,2.20
2023-03-12T12:34:44.838Z,2.20
2023-03-12T12:37:12.430Z,2.27
2023-03-12T12:39:39.989Z,2.24
2023-03-12T12:42:07.664Z,2.19
2023-03-12T12:44:37.905Z,2.21
2023-03-12T12:47:05.569Z,2.28
2023-03-12T12:49:34.236Z,2.39
2023-03-12T12:52:01.935Z,2.44
2023-03-12T12:54:29.869Z,2.46
2023-03-12T12:56:57.407Z,2.45
2023-03-12T12:59:26.373Z,2.42
2023-03-12T13:01:53.929Z,2.39
2023-03-12T13:04:21.910Z,2.44
2023-03-12T13:06:49.764Z,2.50
2023-03-12T13:09:17.377Z,2.54
2023-03-12T13:11:45.127Z,2.58
2023-03-12T13:14:12.922Z,2.61
2023-03-12T13:16:42.866Z,2.61
2023-03-12T13:19:10.732Z,2.58
2023-03-12T13:21:38.338Z,2.55
2023-03-12T13:24:05.974Z,2.57
2023-03-12T13:26:33.800Z,2.57
2023-03-12T13:29:12.420Z,2.57
2023-03-12T13:31:40.658Z,2.55
2023-03-12T13:34:09.112Z,2.54
2023-03-12T13:36:36.861Z,2.50
2023-03-12T13:39:06.757Z,2.47
2023-03-12T13:41:34.316Z,2.42
2023-03-12T13:44:02.022Z,2.42
2023-03-12T13:46:30.942Z,2.43
2023-03-12T13:48:58.631Z,2.44
2023-03-12T13:51:26.868Z,2.45
2023-03-12T13:53:54.557Z,2.46
2023-03-12T13:56:22.433Z,2.50
2023-03-12T13:58:49.966Z,2.55
2023-03-12T14:01:17.533Z,2.59
2023-03-12T14:03:45.405Z,2.59
2023-03-12T14:06:12.925Z,2.62
2023-03-12T14:08:40.560Z,2.61
2023-03-12T14:11:08.459Z,2.64
2023-03-12T14:13:36.031Z,2.64
2023-03-12T14:16:03.864Z,2.68
2023-03-12T14:18:34.095Z,2.67
2023-03-12T14:21:01.661Z,2.66
2023-03-12T14:23:30.907Z,2.67
2023-03-12T14:26:00.394Z,2.68
2023-03-12T14:28:29.475Z,2.62
2023-03-12T14:30:57.141Z,2.60
2023-03-12T14:33:24.830Z,2.59
2023-03-12T14:35:52.402Z,2.57
2023-03-12T14:38:20.650Z,2.53
2023-03-12T14:40:48.305Z,2.50
2023-03-12T14:43:15.878Z,2.47
2023-03-12T14:45:43.575Z,2.46
2023-03-12T14:48:12.177Z,2.44
2023-03-12T14:50:40.339Z,2.43
2023-03-12T14:53:08.643Z,2.40
2023-03-12T14:55:36.794Z,2.38
2023-03-12T14:58:05.090Z,2.37
2023-03-12T15:00:33.076Z,2.37
2023-03-12T15:03:00.793Z,2.39
2023-03-12T15:05:28.374Z,2.43
2023-03-12T15:07:56.084Z,2.46
2023-03-12T15:10:23.709Z,2.45
2023-03-12T15:12:51.300Z,2.46
2023-03-12T15:15:18.952Z,2.42
2023-03-12T15:17:46.699Z,2.37
2023-03-12T15:20:14.298Z,2.35
2023-03-12T15:22:41.816Z,2.32
2023-03-12T15:25:09.642Z,2.28
2023-03-12T15:27:37.252Z,2.24
2023-03-12T15:30:04.809Z,2.20
2023-03-12T15:32:32.547Z,2.17
2023-03-12T15:35:00.995Z,2.12
2023-03-12T15:37:32.850Z,2.08
2023-03-12T15:40:01.360Z,2.04
2023-03-12T15:42:29.553Z,2.03
2023-03-12T15:44:57.419Z,2.01
2023-03-12T15:47:25.196Z,1.98
2023-03-12T15:49:53.315Z,1.97
2023-03-12T15:52:27.643Z,1.92
2023-03-12T15:54:55.372Z,1.90
2023-03-12T15:57:23.127Z,1.88
2023-03-12T15:59:51.000Z,1.85
2023-03-12T16:02:18.777Z,1.82
2023-03-12T16:04:46.786Z,1.79
2023-03-12T16:07:14.669Z,1.74
2023-03-12T16:09:42.723Z,1.69
2023-03-12T16:12:10.387Z,1.65
2023-03-12T16:14:38.091Z,1.63
2023-03-12T16:17:05.961Z,1.62
2023-03-12T16:19:34.315Z,1.57
2023-03-12T16:22:01.968Z,1.52
2023-03-12T16:24:29.720Z,1.47
2023-03-12T16:26:57.480Z,1.43
2023-03-12T16:29:25.234Z,1.39
2023-03-12T16:31:53.149Z,1.36
2023-03-12T16:34:23.873Z,1.32
2023-03-12T16:36:51.636Z,1.32
2023-03-12T16:39:19.578Z,1.28
2023-03-12T16:41:47.359Z,1.28
2023-03-12T16:44:15.300Z,1.26
2023-03-12T16:46:43.118Z,1.22
2023-03-12T16:49:11.081Z,1.18
2023-03-12T16:51:38.824Z,1.15
2023-03-12T16:54:11.821Z,1.13
2023-03-12T16:56:40.010Z,1.09
2023-03-12T16:59:08.023Z,1.06
2023-03-12T17:01:35.879Z,1.04
2023-03-12T17:04:05.116Z,1.03
2023-03-12T17:06:35.055Z,0.99
2023-03-12T17:09:03.172Z,0.96
2023-03-12T17:11:32.897Z,0.91
2023-03-12T17:14:00.968Z,0.88
2023-03-12T17:16:28.889Z,0.85
2023-03-12T17:18:56.961Z,0.81
2023-03-12T17:21:25.035Z,0.78
2023-03-12T17:23:52.959Z,0.75
2023-03-12T17:26:21.606Z,0.74
2023-03-12T17:28:49.331Z,0.72
2023-03-12T17:31:17.091Z,0.70
2023-03-12T17:33:45.816Z,0.69
2023-03-12T17:36:13.376Z,0.70
2023-03-12T17:38:41.033Z,0.71
2023-03-12T17:41:23.401Z,0.71
2023-03-12T17:43:53.291Z,0.68
2023-03-12T17:46:21.069Z,0.67
2023-03-12T17:48:49.208Z,0.66
2023-03-12T17:51:17.872Z,0.60
2023-03-12T17:53:45.524Z,0.58
2023-03-12T17:56:13.467Z,0.58
2023-03-12T17:58:41.256Z,0.59
2023-03-12T18:01:08.954Z,0.61
2023-03-12T18:03:36.913Z,0.64
2023-03-12T18:06:04.912Z,0.62
2023-03-12T18:08:38.372Z,0.63
2023-03-12T18:11:06.244Z,0.61
2023-03-12T18:13:33.822Z,0.60
2023-03-12T18:16:01.524Z,0.57
2023-03-12T18:18:29.291Z,0.56
2023-03-12T18:20:57.161Z,0.51
2023-03-12T18:23:25.589Z,0.45
2023-03-12T18:25:53.423Z,0.42
2023-03-12T18:28:22.616Z,0.38
2023-03-12T18:30:50.501Z,0.34
2023-03-12T18:33:18.080Z,0.29
2023-03-12T18:35:45.767Z,0.22
2023-03-12T18:38:13.672Z,0.18
2023-03-12T18:40:41.455Z,0.15
2023-03-12T18:43:09.137Z,0.15
2023-03-12T18:45:37.985Z,0.12
2023-03-12T18:48:05.868Z,0.09
2023-03-12T18:50:33.497Z,0.03
2023-03-12T18:53:01.231Z,-0.02
2023-03-12T18:55:29.507Z,-0.09
2023-03-12T18:57:57.137Z,-0.13
2023-03-12T19:00:25.104Z,-0.13
2023-03-12T19:02:53.377Z,-0.15
2023-03-12T19:05:21.977Z,-0.16
2023-03-12T19:07:49.774Z,-0.15
2023-03-12T19:10:17.756Z,-0.12
2023-03-12T19:12:53.568Z,-0.12
2023-03-12T19:15:22.214Z,-0.10
2023-03-12T19:17:51.891Z,-0.07
2023-03-12T19:20:19.735Z,-0.05
2023-03-12T19:22:50.066Z,-0.06
2023-03-12T19:25:18.155Z,-0.07
2023-03-12T19:27:45.864Z,-0.06
2023-03-12T19:30:13.945Z,-0.09
2023-03-12T19:32:44.287Z,-0.10
2023-03-12T19:35:12.510Z,-0.11
2023-03-12T19:37:40.285Z,-0.10
2023-03-12T19:40:08.510Z,-0.09
2023-03-12T19:42:37.552Z,-0.04
2023-03-12T19:45:05.679Z,-0.03
2023-03-12T19:47:33.563Z,-0.02
2023-03-12T19:50:01.273Z,-0.00
2023-03-12T19:52:29.558Z,-0.00
2023-03-12T19:55:04.637Z,-0.04
2023-03-12T19:57:34.051Z,-0.06
2023-03-12T20:00:02.176Z,-0.09
2023-03-12T20:02:30.075Z,-0.12
2023-03-12T20:04:58.143Z,-0.14
2023-03-12T20:07:25.934Z,-0.13
2023-03-12T20:09:53.931Z,-0.11
2023-03-12T20:12:21.743Z,-0.06
2023-03-12T20:14:49.959Z,-0.01
2023-03-12T20:17:19.129Z,-0.01
2023-03-12T20:19:47.477Z,-0.02
2023-03-12T20:22:15.229Z,-0.00
2023-03-12T20:24:43.327Z,-0.01
2023-03-12T20:27:13.471Z,-0.03
2023-03-12T20:29:43.592Z,-0.04
2023-03-12T20:32:11.651Z,-0.03
2023-03-12T20:34:39.394Z,-0.03
2023-03-12T20:37:07.095Z,-0.02
2023-03-12T20:39:34.839Z,-0.00
2023-03-12T20:42:02.550Z,0.00
2023-03-12T20:44:30.299Z,0.04
2023-03-12T20:46:57.965Z,0.06
2023-03-12T20:49:26.526Z,0.10
2023-03-12T20:51:54.344Z,0.13
2023-03-12T20:54:22.222Z,0.17
2023-03-12T20:56:50.325Z,0.21
2023-03-12T20:59:17.921Z,0.20
2023-03-12T21:01:48.118Z,0.20
2023-03-12T21:04:15.840Z,0.19
2023-03-12T21:06:44.918Z,0.21
2023-03-12T21:09:12.630Z,0.23
2023-03-12T21:11:40.353Z,0.29
2023-03-12T21:14:07.967Z,0.29
2023-03-12T21:16:35.599Z,0.28
2023-03-12T21:19:04.442Z,0.31
2023-03-12T21:21:32.248Z,0.37
2023-03-12T21:23:59.869Z,0.45
2023-03-12T21:26:27.622Z,0.58
2023-03-12T21:28:55.171Z,0.70
2023-03-12T21:31:23.580Z,0.78
2023-03-12T21:33:51.450Z,0.88
2023-03-12T21:36:18.956Z,0.93
2023-03-12T21:38:47.596Z,0.98
2023-03-12T21:41:15.265Z,1.02
2023-03-12T21:43:42.888Z,1.02
2023-03-12T21:46:10.463Z,1.03
2023-03-12T21:48:41.609Z,1.02
2023-03-12T21:51:09.451Z,1.02
2023-03-12T21:53:37.252Z,1.03
2023-03-12T21:56:04.900Z,1.03
2023-03-12T21:58:32.443Z,0.99
2023-03-12T22:01:02.406Z,0.93
2023-03-12T22:03:29.986Z,0.88
2023-03-12T22:05:57.464Z,0.81
2023-03-12T22:08:25.025Z,0.77
2023-03-12T22:10:52.602Z,0.74
2023-03-12T22:13:20.096Z,0.73
2023-03-12T22:15:47.728Z,0.66
2023-03-12T22:18:15.684Z,0.59
2023-03-12T22:20:43.276Z,0.55
2023-03-12T22:23:11.684Z,0.56
2023-03-12T22:25:39.296Z,0.59
2023-03-12T22:28:07.049Z,0.64
2023-03-12T22:30:34.884Z,0.70
2023-03-12T22:33:02.500Z,0.70
2023-03-12T22:35:30.119Z,0.70
2023-03-12T22:37:57.666Z,0.70
2023-03-12T22:40:25.363Z,0.82
2023-03-12T22:42:52.889Z,1.07
2023-03-12T22:45:20.397Z,1.36
2023-03-12T22:47:48.096Z,1.51
2023-03-12T22:50:15.879Z,1.66
2023-03-12T22:52:43.583Z,1.76
2023-03-12T22:55:11.361Z,1.88
2023-03-12T22:57:39.015Z,1.99
2023-03-12T23:00:07.082Z,2.04
2023-03-12T23:02:35.389Z,2.07
2023-03-12T23:05:03.068Z,2.10
2023-03-12T23:07:30.915Z,2.17
2023-03-12T23:09:58.552Z,2.17
2023-03-12T23:12:26.291Z,2.15
2023-03-12T23:14:53.765Z,2.14
2023-03-12T23:17:21.549Z,2.14
2023-03-12T23:19:49.286Z,2.18
2023-03-12T23:22:16.852Z,2.20
2023-03-12T23:24:45.065Z,2.20
2023-03-12T23:27:12.576Z,2.18
2023-03-12T23:29:40.211Z,2.17
2023-03-12T23:32:07.935Z,2.16
2023-03-12T23:34:35.475Z,2.18
2023-03-12T23:37:03.730Z,2.18
2023-03-12T23:39:32.704Z,2.20
2023-03-12T23:42:00.367Z,2.24
2023-03-12T23:44:27.944Z,2.28
2023-03-12T23:46:57.648Z,2.28
2023-03-12T23:49:25.257Z,2.31
2023-03-12T23:51:52.828Z,2.33
2023-03-12T23:54:20.681Z,2.35
2023-03-12T23:56:48.793Z,2.36
2023-03-12T23:59:16.302Z,2.34
